PWSweather.com
Personal Weather Stations
Station Observations

AwhituWaiuku, CA 268400

Lat: -37.058, Lon: -174.6346

Elevation: 250

Station Type: Personal

http://www.weather-display.com/windy/gb/grahamsbeach.htm

High Low Average
Temperature 68.9°F20.5°C 59.4°F15.2°C 64.4°F18.0°C
Dew Point 68.3°F20.2°C 58.8°F14.9°C 63.8°F17.7°C
Winds 21.9 mph 35.2 kmh 1.2 mph 1.9 kmh 12.0 mph SE19.3 kmh SE
Wind Gusts 29.9 mph48.1 kmh 1.2 mph1.9 kmh 17.0 mph27.4 kmh
Humidity 98% 98% 98%
Pressure 29.84 in1010.5 mb 29.68 in1005.1 mb -
Precipitation 0.76 in19.3 mm - -
Hour Temp Dew Point Humidity Winds Wind Gusts Pressure Precip Precip Rate Daily Precip Total
12:00 AM 60.6°F15.9°C 60.0°F15.6°C 98% 17.3 mph E27.8 kmh E 25.3 mph40.7 kmh 29.82 in1009.8 mb 0.00 in0.0 mm 0.00 in/hr0.0 mm/hr 0.00 in0.0 mm
12:30 AM 60.5°F15.8°C 60.0°F15.6°C 98% 12.7 mph E20.4 kmh E 17.3 mph27.8 kmh 29.84 in1010.5 mb 0.00 in0.0 mm 0.00 in/hr0.0 mm/hr 0.00 in0.0 mm
01:00 AM 59.4°F15.2°C 58.8°F14.9°C 98% 18.4 mph E29.6 kmh E 23.0 mph37.0 kmh 29.81 in1009.5 mb 0.00 in0.0 mm 0.00 in/hr0.0 mm/hr 0.00 in0.0 mm
01:30 AM 60.0°F15.6°C 59.5°F15.3°C 98% 13.8 mph E22.2 kmh E 18.4 mph29.6 kmh 29.80 in1009.1 mb 0.00 in0.0 mm 0.00 in/hr0.0 mm/hr 0.00 in0.0 mm
02:00 AM 60.4°F15.8°C 59.9°F15.5°C 98% 16.1 mph E25.9 kmh E 19.6 mph31.5 kmh 29.79 in1008.8 mb 0.00 in0.0 mm 0.00 in/hr0.0 mm/hr 0.00 in0.0 mm
02:30 AM 60.8°F16.0°C 60.2°F15.7°C 98% 16.1 mph E25.9 kmh E 20.7 mph33.3 kmh 29.76 in1007.8 mb 0.00 in0.0 mm 0.00 in/hr0.0 mm/hr 0.00 in0.0 mm
03:00 AM 61.2°F16.2°C 60.6°F15.9°C 98% 11.5 mph E18.5 kmh E 16.1 mph25.9 kmh 29.76 in1007.8 mb 0.00 in0.0 mm 0.00 in/hr0.0 mm/hr 0.00 in0.0 mm
03:30 AM 61.4°F16.3°C 60.9°F16.1°C 98% 16.1 mph E25.9 kmh E 25.3 mph40.7 kmh 29.75 in1007.5 mb 0.00 in0.0 mm 0.00 in/hr0.0 mm/hr 0.00 in0.0 mm
04:00 AM 61.6°F16.4°C 61.0°F16.1°C 98% 18.4 mph E29.6 kmh E 25.3 mph40.7 kmh 29.73 in1006.8 mb 0.00 in0.0 mm 0.00 in/hr0.0 mm/hr 0.00 in0.0 mm
04:30 AM 62.0°F16.7°C 61.5°F16.4°C 98% 13.8 mph E22.2 kmh E 17.3 mph27.8 kmh 29.75 in1007.5 mb 0.00 in0.0 mm 0.00 in/hr0.0 mm/hr 0.00 in0.0 mm
05:00 AM 62.0°F16.7°C 61.4°F16.3°C 98% 18.4 mph E29.6 kmh E 25.3 mph40.7 kmh 29.74 in1007.1 mb 0.00 in0.0 mm 0.00 in/hr0.0 mm/hr 0.00 in0.0 mm
05:30 AM 62.8°F17.1°C 62.2°F16.8°C 98% 20.7 mph E33.3 kmh E 29.9 mph48.1 kmh 29.73 in1006.8 mb 0.00 in0.0 mm 0.00 in/hr0.0 mm/hr 0.00 in0.0 mm
06:00 AM 62.8°F17.1°C 62.2°F16.8°C 98% 18.4 mph E29.6 kmh E 25.3 mph40.7 kmh 29.74 in1007.1 mb 0.00 in0.0 mm 0.00 in/hr0.0 mm/hr 0.00 in0.0 mm
06:30 AM 62.8°F17.1°C 62.3°F16.8°C 98% 19.6 mph E31.5 kmh E 26.5 mph42.6 kmh 29.75 in1007.5 mb 0.00 in0.0 mm 0.00 in/hr0.0 mm/hr 0.00 in0.0 mm
07:00 AM 63.6°F17.6°C 63.1°F17.3°C 98% 18.4 mph E29.6 kmh E 25.3 mph40.7 kmh 29.76 in1007.8 mb 0.00 in0.0 mm 0.00 in/hr0.0 mm/hr 0.00 in0.0 mm
07:30 AM 63.6°F17.6°C 63.1°F17.3°C 98% 13.8 mph E22.2 kmh E 25.3 mph40.7 kmh 29.77 in1008.1 mb 0.00 in0.0 mm 0.00 in/hr0.0 mm/hr 0.00 in0.0 mm
08:00 AM 63.3°F17.4°C 62.7°F17.1°C 98% 19.6 mph E31.5 kmh E 29.9 mph48.1 kmh 29.76 in1007.8 mb 0.00 in0.0 mm 0.00 in/hr0.0 mm/hr 0.00 in0.0 mm
08:30 AM 63.9°F17.7°C 63.4°F17.4°C 98% 16.1 mph ESE25.9 kmh ESE 25.3 mph40.7 kmh 29.77 in1008.1 mb 0.00 in0.0 mm 0.00 in/hr0.0 mm/hr 0.00 in0.0 mm
09:00 AM 63.8°F17.7°C 63.2°F17.3°C 98% 12.7 mph ENE20.4 kmh ENE 19.6 mph31.5 kmh 29.77 in1008.1 mb 0.00 in0.0 mm 0.00 in/hr0.0 mm/hr 0.00 in0.0 mm
09:30 AM 63.0°F17.2°C 62.4°F16.9°C 98% 17.3 mph ESE27.8 kmh ESE 23.0 mph37.0 kmh 29.75 in1007.5 mb 0.14 in3.6 mm 0.28 in/hr7.1 mm/hr 0.14 in3.6 mm
10:00 AM 63.8°F17.7°C 63.2°F17.3°C 98% 16.1 mph E25.9 kmh E 17.3 mph27.8 kmh 29.74 in1007.1 mb 0.18 in4.6 mm 0.36 in/hr9.1 mm/hr 0.31 in7.9 mm
10:30 AM 64.4°F18.0°C 63.9°F17.7°C 98% 15.0 mph E24.1 kmh E 18.4 mph29.6 kmh 29.73 in1006.8 mb 0.10 in2.5 mm 0.20 in/hr5.1 mm/hr 0.40 in10.2 mm
11:00 AM 65.1°F18.4°C 64.6°F18.1°C 98% 12.7 mph ESE20.4 kmh ESE 15.0 mph24.1 kmh 29.73 in1006.8 mb 0.01 in0.3 mm 0.02 in/hr0.5 mm/hr 0.41 in10.4 mm
11:30 AM 65.6°F18.7°C 65.0°F18.3°C 98% 12.7 mph E20.4 kmh E 19.6 mph31.5 kmh 29.73 in1006.8 mb 0.00 in0.0 mm 0.00 in/hr0.0 mm/hr 0.41 in10.4 mm
12:00 PM 65.9°F18.8°C 65.3°F18.5°C 98% 10.4 mph E16.7 kmh E 13.8 mph22.2 kmh 29.71 in1006.1 mb 0.00 in0.0 mm 0.00 in/hr0.0 mm/hr 0.41 in10.4 mm
12:30 PM 65.3°F18.5°C 64.7°F18.2°C 98% 10.4 mph E16.7 kmh E 16.1 mph25.9 kmh 29.72 in1006.4 mb 0.00 in0.0 mm 0.00 in/hr0.0 mm/hr 0.41 in10.4 mm
01:00 PM 65.3°F18.5°C 64.7°F18.2°C 98% 8.1 mph E13.0 kmh E 10.4 mph16.7 kmh 29.70 in1005.8 mb 0.02 in0.5 mm 0.04 in/hr1.0 mm/hr 0.43 in10.9 mm
01:30 PM 67.3°F19.6°C 66.7°F19.3°C 98% 5.8 mph ESE9.3 kmh ESE 10.4 mph16.7 kmh 29.69 in1005.4 mb 0.02 in0.5 mm 0.04 in/hr1.0 mm/hr 0.45 in11.4 mm
02:00 PM 67.4°F19.7°C 66.8°F19.3°C 98% 6.9 mph E11.1 kmh E 10.4 mph16.7 kmh 29.69 in1005.4 mb 0.00 in0.0 mm 0.00 in/hr0.0 mm/hr 0.45 in11.4 mm
02:30 PM 68.3°F20.2°C 67.7°F19.8°C 98% 5.8 mph ENE9.3 kmh ENE 12.7 mph20.4 kmh 29.69 in1005.4 mb 0.00 in0.0 mm 0.00 in/hr0.0 mm/hr 0.45 in11.4 mm
03:00 PM 68.1°F20.1°C 67.5°F19.7°C 98% 5.8 mph ESE9.3 kmh ESE 8.1 mph13.0 kmh 29.69 in1005.4 mb 0.00 in0.0 mm 0.00 in/hr0.0 mm/hr 0.45 in11.4 mm
03:30 PM 68.9°F20.5°C 68.3°F20.2°C 98% 8.1 mph E13.0 kmh E 9.2 mph14.8 kmh 29.68 in1005.1 mb 0.00 in0.0 mm 0.00 in/hr0.0 mm/hr 0.45 in11.4 mm
04:00 PM 67.3°F19.6°C 66.7°F19.3°C 98% 4.6 mph E7.4 kmh E 9.2 mph14.8 kmh 29.68 in1005.1 mb 0.00 in0.0 mm 0.00 in/hr0.0 mm/hr 0.45 in11.4 mm
04:30 PM 67.1°F19.5°C 66.6°F19.2°C 98% 6.9 mph E11.1 kmh E 9.2 mph14.8 kmh 29.69 in1005.4 mb 0.00 in0.0 mm 0.00 in/hr0.0 mm/hr 0.45 in11.4 mm
05:00 PM 67.6°F19.8°C 67.0°F19.4°C 98% 4.6 mph NE7.4 kmh NE 5.8 mph9.3 kmh 29.69 in1005.4 mb 0.00 in0.0 mm 0.00 in/hr0.0 mm/hr 0.45 in11.4 mm
05:30 PM 68.1°F20.1°C 67.5°F19.7°C 98% 2.3 mph N3.7 kmh N 3.5 mph5.6 kmh 29.70 in1005.8 mb 0.07 in1.8 mm 0.14 in/hr3.6 mm/hr 0.52 in13.2 mm
06:00 PM 68.0°F20.0°C 67.4°F19.7°C 98% 2.3 mph NW3.7 kmh NW 5.8 mph9.3 kmh 29.70 in1005.8 mb 0.01 in0.3 mm 0.02 in/hr0.5 mm/hr 0.53 in13.5 mm
06:30 PM 66.9°F19.4°C 66.3°F19.1°C 98% 5.8 mph NW9.3 kmh NW 6.9 mph11.1 kmh 29.71 in1006.1 mb 0.09 in2.3 mm 0.18 in/hr4.6 mm/hr 0.62 in15.7 mm
07:00 PM 65.4°F18.6°C 64.8°F18.2°C 98% 5.8 mph N9.3 kmh N 6.9 mph11.1 kmh 29.72 in1006.4 mb 0.15 in3.8 mm 0.30 in/hr7.6 mm/hr 0.76 in19.3 mm
07:30 PM 65.6°F18.7°C 65.0°F18.3°C 98% 1.2 mph NE1.9 kmh NE 1.2 mph1.9 kmh 29.73 in1006.8 mb 0.00 in0.0 mm 0.00 in/hr0.0 mm/hr 0.76 in19.3 mm
08:00 PM 65.6°F18.7°C 65.0°F18.3°C 98% 2.3 mph NE3.7 kmh NE 3.5 mph5.6 kmh 29.75 in1007.5 mb 0.00 in0.0 mm 0.00 in/hr0.0 mm/hr 0.76 in19.3 mm
08:30 PM 65.3°F18.5°C 64.8°F18.2°C 98% 10.4 mph NNW16.7 kmh NNW 15.0 mph24.1 kmh 29.76 in1007.8 mb 0.00 in0.0 mm 0.00 in/hr0.0 mm/hr 0.76 in19.3 mm
09:00 PM 65.2°F18.4°C 64.6°F18.1°C 98% 13.8 mph NW22.2 kmh NW 15.0 mph24.1 kmh 29.77 in1008.1 mb 0.00 in0.0 mm 0.00 in/hr0.0 mm/hr 0.76 in19.3 mm
09:30 PM 64.9°F18.3°C 64.3°F17.9°C 98% 9.2 mph NW14.8 kmh NW 15.0 mph24.1 kmh 29.78 in1008.5 mb 0.00 in0.0 mm 0.00 in/hr0.0 mm/hr 0.76 in19.3 mm
10:00 PM 64.8°F18.2°C 64.2°F17.9°C 98% 13.8 mph W22.2 kmh W 18.4 mph29.6 kmh 29.78 in1008.5 mb 0.00 in0.0 mm 0.00 in/hr0.0 mm/hr 0.76 in19.3 mm
10:30 PM 64.6°F18.1°C 64.0°F17.8°C 98% 16.1 mph WNW25.9 kmh WNW 19.6 mph31.5 kmh 29.79 in1008.8 mb 0.00 in0.0 mm 0.00 in/hr0.0 mm/hr 0.76 in19.3 mm
11:00 PM 64.8°F18.2°C 64.2°F17.9°C 98% 13.8 mph WNW22.2 kmh WNW 18.4 mph29.6 kmh 29.80 in1009.1 mb 0.00 in0.0 mm 0.00 in/hr0.0 mm/hr 0.79 in20.1 mm
11:30 PM 64.9°F18.3°C 64.3°F17.9°C 98% 21.9 mph NW35.2 kmh NW 28.8 mph46.3 kmh 29.80 in1009.1 mb 0.00 in0.0 mm 0.00 in/hr0.0 mm/hr 0.79 in20.1 mm